sensor_id;sensor_type;location;lat;lon;timestamp;temperature;humidity
69084;SHT31;56185;48.526;9.044;2023-06-10T00:00:54;18.62;62.96
69084;SHT31;56185;48.526;9.044;2023-06-10T00:03:19;18.66;63.02
69084;SHT31;56185;48.526;9.044;2023-06-10T00:05:44;18.70;62.58
69084;SHT31;56185;48.526;9.044;2023-06-10T00:08:10;18.75;62.28
69084;SHT31;56185;48.526;9.044;2023-06-10T00:10:38;18.70;62.48
69084;SHT31;56185;48.526;9.044;2023-06-10T00:13:04;18.75;62.33
69084;SHT31;56185;48.526;9.044;2023-06-10T00:15:30;18.69;62.94
69084;SHT31;56185;48.526;9.044;2023-06-10T00:17:55;18.49;63.70
69084;SHT31;56185;48.526;9.044;2023-06-10T00:20:21;18.47;63.66
69084;SHT31;56185;48.526;9.044;2023-06-10T00:22:46;18.47;63.75
69084;SHT31;56185;48.526;9.044;2023-06-10T00:25:11;18.15;64.79
69084;SHT31;56185;48.526;9.044;2023-06-10T00:27:36;18.17;64.65
69084;SHT31;56185;48.526;9.044;2023-06-10T00:30:03;17.98;65.73
69084;SHT31;56185;48.526;9.044;2023-06-10T00:32:29;18.08;65.31
69084;SHT31;56185;48.526;9.044;2023-06-10T00:34:54;18.02;65.18
69084;SHT31;56185;48.526;9.044;2023-06-10T00:37:20;18.05;65.30
69084;SHT31;56185;48.526;9.044;2023-06-10T00:39:45;18.10;65.24
69084;SHT31;56185;48.526;9.044;2023-06-10T00:42:10;18.18;64.06
69084;SHT31;56185;48.526;9.044;2023-06-10T00:44:35;18.02;64.96
69084;SHT31;56185;48.526;9.044;2023-06-10T00:47:00;18.04;64.94
69084;SHT31;56185;48.526;9.044;2023-06-10T00:49:26;18.05;64.56
69084;SHT31;56185;48.526;9.044;2023-06-10T00:51:52;18.01;64.64
69084;SHT31;56185;48.526;9.044;2023-06-10T00:54:17;18.15;64.07
69084;SHT31;56185;48.526;9.044;2023-06-10T00:56:43;17.98;65.23
69084;SHT31;56185;48.526;9.044;2023-06-10T00:59:08;17.83;66.07
69084;SHT31;56185;48.526;9.044;2023-06-10T01:01:33;17.96;65.55
69084;SHT31;56185;48.526;9.044;2023-06-10T01:04:02;17.93;65.70
69084;SHT31;56185;48.526;9.044;2023-06-10T01:06:44;17.71;66.71
69084;SHT31;56185;48.526;9.044;2023-06-10T01:09:21;17.45;67.10
69084;SHT31;56185;48.526;9.044;2023-06-10T01:11:55;17.62;66.58
69084;SHT31;56185;48.526;9.044;2023-06-10T01:14:22;17.43;67.63
69084;SHT31;56185;48.526;9.044;2023-06-10T01:16:48;17.46;67.32
69084;SHT31;56185;48.526;9.044;2023-06-10T01:19:13;17.30;67.84
69084;SHT31;56185;48.526;9.044;2023-06-10T01:21:38;17.14;68.52
69084;SHT31;56185;48.526;9.044;2023-06-10T01:24:04;17.12;68.56
69084;SHT31;56185;48.526;9.044;2023-06-10T01:26:32;17.16;68.54
69084;SHT31;56185;48.526;9.044;2023-06-10T01:29:04;17.30;67.84
69084;SHT31;56185;48.526;9.044;2023-06-10T01:34:13;17.15;68.36
69084;SHT31;56185;48.526;9.044;2023-06-10T01:36:40;17.15;68.59
69084;SHT31;56185;48.526;9.044;2023-06-10T01:39:07;17.22;68.10
69084;SHT31;56185;48.526;9.044;2023-06-10T01:41:34;17.30;67.20
69084;SHT31;56185;48.526;9.044;2023-06-10T01:44:00;17.32;66.79
69084;SHT31;56185;48.526;9.044;2023-06-10T01:46:25;17.28;67.17
69084;SHT31;56185;48.526;9.044;2023-06-10T01:48:50;17.25;67.04
69084;SHT31;56185;48.526;9.044;2023-06-10T01:51:16;17.21;67.50
69084;SHT31;56185;48.526;9.044;2023-06-10T01:53:41;17.02;68.14
69084;SHT31;56185;48.526;9.044;2023-06-10T01:56:06;17.08;67.61
69084;SHT31;56185;48.526;9.044;2023-06-10T01:58:32;17.09;67.22
69084;SHT31;56185;48.526;9.044;2023-06-10T02:00:57;17.07;67.51
69084;SHT31;56185;48.526;9.044;2023-06-10T02:03:23;16.96;67.58
69084;SHT31;56185;48.526;9.044;2023-06-10T02:05:48;16.74;68.47
69084;SHT31;56185;48.526;9.044;2023-06-10T02:08:13;16.59;69.30
69084;SHT31;56185;48.526;9.044;2023-06-10T02:10:39;16.46;70.06
69084;SHT31;56185;48.526;9.044;2023-06-10T02:13:04;16.41;69.97
69084;SHT31;56185;48.526;9.044;2023-06-10T02:15:29;16.33;70.46
69084;SHT31;56185;48.526;9.044;2023-06-10T02:17:54;16.32;70.23
69084;SHT31;56185;48.526;9.044;2023-06-10T02:20:20;16.24;70.76
69084;SHT31;56185;48.526;9.044;2023-06-10T02:22:45;16.17;70.80
69084;SHT31;56185;48.526;9.044;2023-06-10T02:25:10;16.23;70.33
69084;SHT31;56185;48.526;9.044;2023-06-10T02:27:35;16.43;70.01
69084;SHT31;56185;48.526;9.044;2023-06-10T02:30:01;16.56;68.33
69084;SHT31;56185;48.526;9.044;2023-06-10T02:32:26;16.61;67.91
69084;SHT31;56185;48.526;9.044;2023-06-10T02:34:51;16.57;67.29
69084;SHT31;56185;48.526;9.044;2023-06-10T02:37:17;16.57;67.67
69084;SHT31;56185;48.526;9.044;2023-06-10T02:39:42;16.59;68.08
69084;SHT31;56185;48.526;9.044;2023-06-10T02:42:08;16.33;69.26
69084;SHT31;56185;48.526;9.044;2023-06-10T02:44:33;16.30;69.22
69084;SHT31;56185;48.526;9.044;2023-06-10T02:46:58;16.32;69.02
69084;SHT31;56185;48.526;9.044;2023-06-10T02:49:24;16.40;68.76
69084;SHT31;56185;48.526;9.044;2023-06-10T02:51:50;16.32;69.12
69084;SHT31;56185;48.526;9.044;2023-06-10T02:54:15;16.14;69.90
69084;SHT31;56185;48.526;9.044;2023-06-10T02:56:40;15.99;70.61
69084;SHT31;56185;48.526;9.044;2023-06-10T02:59:06;16.08;70.56
69084;SHT31;56185;48.526;9.044;2023-06-10T03:01:31;16.30;68.80
69084;SHT31;56185;48.526;9.044;2023-06-10T03:03:56;16.10;69.83
69084;SHT31;56185;48.526;9.044;2023-06-10T03:06:21;16.05;70.48
69084;SHT31;56185;48.526;9.044;2023-06-10T03:08:47;16.05;70.29
69084;SHT31;56185;48.526;9.044;2023-06-10T03:11:12;16.03;69.30
69084;SHT31;56185;48.526;9.044;2023-06-10T03:13:38;16.03;70.35
69084;SHT31;56185;48.526;9.044;2023-06-10T03:16:03;15.98;70.73
69084;SHT31;56185;48.526;9.044;2023-06-10T03:18:29;16.03;70.52
69084;SHT31;56185;48.526;9.044;2023-06-10T03:20:54;15.72;71.53
69084;SHT31;56185;48.526;9.044;2023-06-10T03:23:20;15.65;72.05
69084;SHT31;56185;48.526;9.044;2023-06-10T03:25:45;15.54;72.68
69084;SHT31;56185;48.526;9.044;2023-06-10T03:28:10;15.64;72.04
69084;SHT31;56185;48.526;9.044;2023-06-10T03:30:36;15.78;71.58
69084;SHT31;56185;48.526;9.044;2023-06-10T03:33:01;15.62;72.09
69084;SHT31;56185;48.526;9.044;2023-06-10T03:35:26;15.74;71.58
69084;SHT31;56185;48.526;9.044;2023-06-10T03:37:52;15.64;72.00
69084;SHT31;56185;48.526;9.044;2023-06-10T03:40:17;15.59;72.11
69084;SHT31;56185;48.526;9.044;2023-06-10T03:42:42;15.48;72.72
69084;SHT31;56185;48.526;9.044;2023-06-10T03:45:08;15.40;73.23
69084;SHT31;56185;48.526;9.044;2023-06-10T03:47:34;15.44;72.99
69084;SHT31;56185;48.526;9.044;2023-06-10T03:49:59;15.51;72.68
69084;SHT31;56185;48.526;9.044;2023-06-10T03:52:24;15.58;72.61
69084;SHT31;56185;48.526;9.044;2023-06-10T03:54:50;15.65;71.27
69084;SHT31;56185;48.526;9.044;2023-06-10T03:57:15;15.77;70.69
69084;SHT31;56185;48.526;9.044;2023-06-10T03:59:40;15.95;70.30
69084;SHT31;56185;48.526;9.044;2023-06-10T04:02:05;15.96;69.80
69084;SHT31;56185;48.526;9.044;2023-06-10T04:04:30;16.02;69.34
69084;SHT31;56185;48.526;9.044;2023-06-10T04:06:56;16.01;69.83
69084;SHT31;56185;48.526;9.044;2023-06-10T04:09:21;15.71;71.42
69084;SHT31;56185;48.526;9.044;2023-06-10T04:11:46;15.68;71.66
69084;SHT31;56185;48.526;9.044;2023-06-10T04:14:11;15.66;71.67
69084;SHT31;56185;48.526;9.044;2023-06-10T04:16:37;15.55;72.44
69084;SHT31;56185;48.526;9.044;2023-06-10T04:19:02;15.45;72.70
69084;SHT31;56185;48.526;9.044;2023-06-10T04:21:27;15.47;72.87
69084;SHT31;56185;48.526;9.044;2023-06-10T04:23:53;15.50;73.19
69084;SHT31;56185;48.526;9.044;2023-06-10T04:26:18;15.57;73.33
69084;SHT31;56185;48.526;9.044;2023-06-10T04:28:44;15.59;72.91
69084;SHT31;56185;48.526;9.044;2023-06-10T04:31:09;15.64;72.97
69084;SHT31;56185;48.526;9.044;2023-06-10T04:33:34;15.74;71.65
69084;SHT31;56185;48.526;9.044;2023-06-10T04:36:00;15.83;71.78
69084;SHT31;56185;48.526;9.044;2023-06-10T04:38:25;15.99;71.11
69084;SHT31;56185;48.526;9.044;2023-06-10T04:40:50;15.88;71.49
69084;SHT31;56185;48.526;9.044;2023-06-10T04:43:15;15.92;71.11
69084;SHT31;56185;48.526;9.044;2023-06-10T04:45:41;15.99;71.17
69084;SHT31;56185;48.526;9.044;2023-06-10T04:48:06;15.98;71.21
69084;SHT31;56185;48.526;9.044;2023-06-10T04:50:31;15.93;71.96
69084;SHT31;56185;48.526;9.044;2023-06-10T04:52:56;15.89;72.33
69084;SHT31;56185;48.526;9.044;2023-06-10T04:55:21;15.83;72.87
69084;SHT31;56185;48.526;9.044;2023-06-10T04:57:47;15.85;72.74
69084;SHT31;56185;48.526;9.044;2023-06-10T05:00:12;15.88;72.86
69084;SHT31;56185;48.526;9.044;2023-06-10T05:02:37;15.93;72.36
69084;SHT31;56185;48.526;9.044;2023-06-10T05:05:03;15.95;72.63
69084;SHT31;56185;48.526;9.044;2023-06-10T05:07:28;16.14;70.91
69084;SHT31;56185;48.526;9.044;2023-06-10T05:09:53;16.14;70.98
69084;SHT31;56185;48.526;9.044;2023-06-10T05:12:18;16.22;71.05
69084;SHT31;56185;48.526;9.044;2023-06-10T05:14:44;16.36;70.42
69084;SHT31;56185;48.526;9.044;2023-06-10T05:17:09;16.37;70.57
69084;SHT31;56185;48.526;9.044;2023-06-10T05:19:34;16.51;69.57
69084;SHT31;56185;48.526;9.044;2023-06-10T05:21:59;16.59;69.46
69084;SHT31;56185;48.526;9.044;2023-06-10T05:24:25;16.59;69.31
69084;SHT31;56185;48.526;9.044;2023-06-10T05:26:50;16.56;69.44
69084;SHT31;56185;48.526;9.044;2023-06-10T05:29:15;16.67;68.82
69084;SHT31;56185;48.526;9.044;2023-06-10T05:31:41;16.77;68.66
69084;SHT31;56185;48.526;9.044;2023-06-10T05:34:06;16.78;69.03
69084;SHT31;56185;48.526;9.044;2023-06-10T05:36:32;16.82;68.77
69084;SHT31;56185;48.526;9.044;2023-06-10T05:38:57;16.88;67.67
69084;SHT31;56185;48.526;9.044;2023-06-10T05:41:22;17.00;67.82
69084;SHT31;56185;48.526;9.044;2023-06-10T05:43:47;17.05;67.65
69084;SHT31;56185;48.526;9.044;2023-06-10T05:46:13;17.02;67.96
69084;SHT31;56185;48.526;9.044;2023-06-10T05:48:38;17.04;68.74
69084;SHT31;56185;48.526;9.044;2023-06-10T05:51:03;17.22;68.58
69084;SHT31;56185;48.526;9.044;2023-06-10T05:53:28;17.15;68.00
69084;SHT31;56185;48.526;9.044;2023-06-10T05:55:54;17.35;68.23
69084;SHT31;56185;48.526;9.044;2023-06-10T05:58:20;17.36;68.35
69084;SHT31;56185;48.526;9.044;2023-06-10T06:00:45;17.36;68.16
69084;SHT31;56185;48.526;9.044;2023-06-10T06:03:10;17.40;67.20
69084;SHT31;56185;48.526;9.044;2023-06-10T06:05:36;17.35;66.94
69084;SHT31;56185;48.526;9.044;2023-06-10T06:08:01;17.39;66.82
69084;SHT31;56185;48.526;9.044;2023-06-10T06:10:27;17.39;67.86
69084;SHT31;56185;48.526;9.044;2023-06-10T06:12:52;17.46;68.10
69084;SHT31;56185;48.526;9.044;2023-06-10T06:15:17;17.50;67.06
69084;SHT31;56185;48.526;9.044;2023-06-10T06:17:42;17.56;67.43
69084;SHT31;56185;48.526;9.044;2023-06-10T06:20:08;17.67;66.30
69084;SHT31;56185;48.526;9.044;2023-06-10T06:22:33;17.66;66.30
69084;SHT31;56185;48.526;9.044;2023-06-10T06:24:58;17.62;67.48
69084;SHT31;56185;48.526;9.044;2023-06-10T06:27:23;17.79;66.57
69084;SHT31;56185;48.526;9.044;2023-06-10T06:29:49;17.84;67.06
69084;SHT31;56185;48.526;9.044;2023-06-10T06:32:14;17.91;66.55
69084;SHT31;56185;48.526;9.044;2023-06-10T06:34:39;17.98;66.20
69084;SHT31;56185;48.526;9.044;2023-06-10T06:37:05;18.05;65.84
69084;SHT31;56185;48.526;9.044;2023-06-10T06:39:30;18.08;65.87
69084;SHT31;56185;48.526;9.044;2023-06-10T06:41:55;18.20;66.19
69084;SHT31;56185;48.526;9.044;2023-06-10T06:44:20;18.28;65.34
69084;SHT31;56185;48.526;9.044;2023-06-10T06:46:46;18.22;66.63
69084;SHT31;56185;48.526;9.044;2023-06-10T06:49:11;18.22;67.44
69084;SHT31;56185;48.526;9.044;2023-06-10T06:51:36;18.41;66.14
69084;SHT31;56185;48.526;9.044;2023-06-10T06:54:01;18.53;65.99
69084;SHT31;56185;48.526;9.044;2023-06-10T06:56:26;18.65;65.89
69084;SHT31;56185;48.526;9.044;2023-06-10T06:58:52;18.69;65.64
69084;SHT31;56185;48.526;9.044;2023-06-10T07:01:17;18.86;65.12
69084;SHT31;56185;48.526;9.044;2023-06-10T07:03:42;18.95;64.84
69084;SHT31;56185;48.526;9.044;2023-06-10T07:06:07;19.02;64.30
69084;SHT31;56185;48.526;9.044;2023-06-10T07:08:33;18.93;65.45
69084;SHT31;56185;48.526;9.044;2023-06-10T07:10:58;19.03;65.76
69084;SHT31;56185;48.526;9.044;2023-06-10T07:13:23;19.23;64.92
69084;SHT31;56185;48.526;9.044;2023-06-10T07:15:48;19.21;66.34
69084;SHT31;56185;48.526;9.044;2023-06-10T07:18:15;19.38;65.24
69084;SHT31;56185;48.526;9.044;2023-06-10T07:20:40;19.50;64.97
69084;SHT31;56185;48.526;9.044;2023-06-10T07:23:05;19.65;65.99
69084;SHT31;56185;48.526;9.044;2023-06-10T07:25:31;19.72;65.37
69084;SHT31;56185;48.526;9.044;2023-06-10T07:27:56;19.89;64.43
69084;SHT31;56185;48.526;9.044;2023-06-10T07:30:21;19.96;64.70
69084;SHT31;56185;48.526;9.044;2023-06-10T07:32:46;20.05;64.73
69084;SHT31;56185;48.526;9.044;2023-06-10T07:35:12;20.23;64.44
69084;SHT31;56185;48.526;9.044;2023-06-10T07:37:37;20.47;62.69
69084;SHT31;56185;48.526;9.044;2023-06-10T07:40:02;20.50;62.80
69084;SHT31;56185;48.526;9.044;2023-06-10T07:42:28;20.71;63.07
69084;SHT31;56185;48.526;9.044;2023-06-10T07:44:53;20.77;62.91
69084;SHT31;56185;48.526;9.044;2023-06-10T07:47:18;20.90;61.77
69084;SHT31;56185;48.526;9.044;2023-06-10T07:49:43;20.96;61.37
69084;SHT31;56185;48.526;9.044;2023-06-10T07:52:09;21.05;62.28
69084;SHT31;56185;48.526;9.044;2023-06-10T07:54:34;21.16;61.22
69084;SHT31;56185;48.526;9.044;2023-06-10T07:56:59;21.29;61.40
69084;SHT31;56185;48.526;9.044;2023-06-10T07:59:24;21.29;60.55
69084;SHT31;56185;48.526;9.044;2023-06-10T08:01:50;21.38;59.92
69084;SHT31;56185;48.526;9.044;2023-06-10T08:04:15;21.49;60.59
69084;SHT31;56185;48.526;9.044;2023-06-10T08:06:40;21.63;59.84
69084;SHT31;56185;48.526;9.044;2023-06-10T08:09:05;21.72;60.38
69084;SHT31;56185;48.526;9.044;2023-06-10T08:11:30;21.79;58.92
69084;SHT31;56185;48.526;9.044;2023-06-10T08:13:56;21.96;58.74
69084;SHT31;56185;48.526;9.044;2023-06-10T08:16:21;22.07;58.62
69084;SHT31;56185;48.526;9.044;2023-06-10T08:18:46;22.17;57.83
69084;SHT31;56185;48.526;9.044;2023-06-10T08:21:11;22.22;56.52
69084;SHT31;56185;48.526;9.044;2023-06-10T08:23:37;22.22;57.13
69084;SHT31;56185;48.526;9.044;2023-06-10T08:26:02;22.37;58.24
69084;SHT31;56185;48.526;9.044;2023-06-10T08:28:27;22.45;57.30
69084;SHT31;56185;48.526;9.044;2023-06-10T08:30:52;22.66;56.42
69084;SHT31;56185;48.526;9.044;2023-06-10T08:33:18;22.65;56.07
69084;SHT31;56185;48.526;9.044;2023-06-10T08:35:43;22.75;55.96
69084;SHT31;56185;48.526;9.044;2023-06-10T08:38:08;22.77;56.58
69084;SHT31;56185;48.526;9.044;2023-06-10T08:40:34;22.88;55.56
69084;SHT31;56185;48.526;9.044;2023-06-10T08:43:07;22.93;55.08
69084;SHT31;56185;48.526;9.044;2023-06-10T08:45:34;22.96;54.37
69084;SHT31;56185;48.526;9.044;2023-06-10T08:48:01;23.07;54.73
69084;SHT31;56185;48.526;9.044;2023-06-10T08:50:28;23.19;54.64
69084;SHT31;56185;48.526;9.044;2023-06-10T08:52:54;23.17;53.60
69084;SHT31;56185;48.526;9.044;2023-06-10T08:55:32;23.27;54.48
69084;SHT31;56185;48.526;9.044;2023-06-10T08:57:59;23.27;53.54
69084;SHT31;56185;48.526;9.044;2023-06-10T09:00:26;23.27;54.34
69084;SHT31;56185;48.526;9.044;2023-06-10T09:02:52;23.34;53.47
69084;SHT31;56185;48.526;9.044;2023-06-10T09:05:17;23.57;54.22
69084;SHT31;56185;48.526;9.044;2023-06-10T09:07:43;23.61;52.24
69084;SHT31;56185;48.526;9.044;2023-06-10T09:10:10;23.65;52.67
69084;SHT31;56185;48.526;9.044;2023-06-10T09:12:36;23.70;51.16
69084;SHT31;56185;48.526;9.044;2023-06-10T09:15:01;23.86;52.42
69084;SHT31;56185;48.526;9.044;2023-06-10T09:17:27;23.99;52.31
69084;SHT31;56185;48.526;9.044;2023-06-10T09:19:53;24.06;53.14
69084;SHT31;56185;48.526;9.044;2023-06-10T09:22:18;24.12;52.46
69084;SHT31;56185;48.526;9.044;2023-06-10T09:24:44;24.29;52.25
69084;SHT31;56185;48.526;9.044;2023-06-10T09:27:09;24.36;51.62
69084;SHT31;56185;48.526;9.044;2023-06-10T09:32:13;24.60;51.36
69084;SHT31;56185;48.526;9.044;2023-06-10T09:34:39;24.67;50.57
69084;SHT31;56185;48.526;9.044;2023-06-10T09:37:04;24.71;50.29
69084;SHT31;56185;48.526;9.044;2023-06-10T09:39:30;24.76;51.32
69084;SHT31;56185;48.526;9.044;2023-06-10T09:41:55;24.74;51.06
69084;SHT31;56185;48.526;9.044;2023-06-10T09:44:21;24.83;51.47
69084;SHT31;56185;48.526;9.044;2023-06-10T09:46:48;24.98;50.68
69084;SHT31;56185;48.526;9.044;2023-06-10T09:49:14;25.11;51.18
69084;SHT31;56185;48.526;9.044;2023-06-10T09:51:49;25.28;49.20
69084;SHT31;56185;48.526;9.044;2023-06-10T09:54:15;25.28;48.79
69084;SHT31;56185;48.526;9.044;2023-06-10T09:56:40;25.31;47.20
69084;SHT31;56185;48.526;9.044;2023-06-10T09:59:05;25.35;48.84
69084;SHT31;56185;48.526;9.044;2023-06-10T10:01:31;25.41;47.89
69084;SHT31;56185;48.526;9.044;2023-06-10T10:03:56;25.49;47.67
69084;SHT31;56185;48.526;9.044;2023-06-10T10:06:21;25.52;48.17
69084;SHT31;56185;48.526;9.044;2023-06-10T10:08:48;25.52;47.76
69084;SHT31;56185;48.526;9.044;2023-06-10T10:11:17;25.70;47.62
69084;SHT31;56185;48.526;9.044;2023-06-10T10:13:45;25.77;48.01
69084;SHT31;56185;48.526;9.044;2023-06-10T10:16:12;25.80;47.07
69084;SHT31;56185;48.526;9.044;2023-06-10T10:18:43;25.90;47.70
69084;SHT31;56185;48.526;9.044;2023-06-10T10:21:15;25.97;46.88
69084;SHT31;56185;48.526;9.044;2023-06-10T10:23:52;26.10;45.90
69084;SHT31;56185;48.526;9.044;2023-06-10T10:26:23;26.01;46.50
69084;SHT31;56185;48.526;9.044;2023-06-10T10:29:02;26.13;46.21
69084;SHT31;56185;48.526;9.044;2023-06-10T10:31:32;26.27;46.24
69084;SHT31;56185;48.526;9.044;2023-06-10T10:33:59;26.44;45.07
69084;SHT31;56185;48.526;9.044;2023-06-10T10:36:25;26.54;44.44
69084;SHT31;56185;48.526;9.044;2023-06-10T10:38:51;26.56;43.12
69084;SHT31;56185;48.526;9.044;2023-06-10T10:41:17;26.48;43.69
69084;SHT31;56185;48.526;9.044;2023-06-10T10:43:44;26.52;44.85
69084;SHT31;56185;48.526;9.044;2023-06-10T10:46:14;26.61;45.28
69084;SHT31;56185;48.526;9.044;2023-06-10T10:48:40;26.74;44.55
69084;SHT31;56185;48.526;9.044;2023-06-10T10:51:05;26.74;44.87
69084;SHT31;56185;48.526;9.044;2023-06-10T10:53:30;26.82;43.86
69084;SHT31;56185;48.526;9.044;2023-06-10T10:58:25;26.93;44.47
69084;SHT31;56185;48.526;9.044;2023-06-10T11:00:50;27.07;44.55
69084;SHT31;56185;48.526;9.044;2023-06-10T11:03:16;27.13;42.09
69084;SHT31;56185;48.526;9.044;2023-06-10T11:05:43;26.99;42.29
69084;SHT31;56185;48.526;9.044;2023-06-10T11:08:09;27.10;43.16
69084;SHT31;56185;48.526;9.044;2023-06-10T11:10:37;27.17;42.20
69084;SHT31;56185;48.526;9.044;2023-06-10T11:13:29;27.22;41.29
69084;SHT31;56185;48.526;9.044;2023-06-10T11:15:57;27.32;42.38
69084;SHT31;56185;48.526;9.044;2023-06-10T11:18:23;27.43;42.49
69084;SHT31;56185;48.526;9.044;2023-06-10T11:29:00;27.40;40.87
69084;SHT31;56185;48.526;9.044;2023-06-10T11:31:32;27.42;42.36
69084;SHT31;56185;48.526;9.044;2023-06-10T11:33:59;27.50;41.75
69084;SHT31;56185;48.526;9.044;2023-06-10T11:36:26;27.50;41.09
69084;SHT31;56185;48.526;9.044;2023-06-10T11:38:57;27.71;41.14
69084;SHT31;56185;48.526;9.044;2023-06-10T11:41:24;27.87;41.24
69084;SHT31;56185;48.526;9.044;2023-06-10T11:43:49;27.87;40.15
69084;SHT31;56185;48.526;9.044;2023-06-10T11:46:15;27.94;41.21
69084;SHT31;56185;48.526;9.044;2023-06-10T11:48:53;28.01;41.02
69084;SHT31;56185;48.526;9.044;2023-06-10T11:51:19;28.06;40.14
69084;SHT31;56185;48.526;9.044;2023-06-10T11:53:45;28.11;40.83
69084;SHT31;56185;48.526;9.044;2023-06-10T11:56:10;28.16;39.84
69084;SHT31;56185;48.526;9.044;2023-06-10T11:58:35;28.19;39.68
69084;SHT31;56185;48.526;9.044;2023-06-10T12:01:01;28.26;38.60
69084;SHT31;56185;48.526;9.044;2023-06-10T12:03:27;28.28;39.69
69084;SHT31;56185;48.526;9.044;2023-06-10T12:06:01;28.25;38.53
69084;SHT31;56185;48.526;9.044;2023-06-10T12:08:26;28.36;39.46
69084;SHT31;56185;48.526;9.044;2023-06-10T12:10:52;28.35;39.97
69084;SHT31;56185;48.526;9.044;2023-06-10T12:13:17;28.26;39.27
69084;SHT31;56185;48.526;9.044;2023-06-10T12:15:43;28.22;38.64
69084;SHT31;56185;48.526;9.044;2023-06-10T12:18:17;28.19;39.19
69084;SHT31;56185;48.526;9.044;2023-06-10T12:20:43;28.12;39.23
69084;SHT31;56185;48.526;9.044;2023-06-10T12:23:09;28.04;39.24
69084;SHT31;56185;48.526;9.044;2023-06-10T12:25:34;28.13;38.99
69084;SHT31;56185;48.526;9.044;2023-06-10T12:28:00;28.11;38.65
69084;SHT31;56185;48.526;9.044;2023-06-10T12:30:27;28.21;38.20
69084;SHT31;56185;48.526;9.044;2023-06-10T12:32:52;28.35;38.41
69084;SHT31;56185;48.526;9.044;2023-06-10T12:35:20;28.31;39.21
69084;SHT31;56185;48.526;9.044;2023-06-10T12:38:04;28.32;39.35
69084;SHT31;56185;48.526;9.044;2023-06-10T12:40:34;28.32;38.45
69084;SHT31;56185;48.526;9.044;2023-06-10T12:43:01;28.46;39.02
69084;SHT31;56185;48.526;9.044;2023-06-10T12:45:31;28.46;38.22
69084;SHT31;56185;48.526;9.044;2023-06-10T12:48:20;28.60;38.01
69084;SHT31;56185;48.526;9.044;2023-06-10T12:50:51;28.71;37.16
69084;SHT31;56185;48.526;9.044;2023-06-10T12:53:16;28.76;36.60
69084;SHT31;56185;48.526;9.044;2023-06-10T12:55:41;28.90;37.67
69084;SHT31;56185;48.526;9.044;2023-06-10T12:58:07;28.93;36.19
69084;SHT31;56185;48.526;9.044;2023-06-10T13:00:32;29.08;36.30
69084;SHT31;56185;48.526;9.044;2023-06-10T13:03:00;29.18;36.54
69084;SHT31;56185;48.526;9.044;2023-06-10T13:05:25;29.31;36.19
69084;SHT31;56185;48.526;9.044;2023-06-10T13:07:50;29.41;35.85
69084;SHT31;56185;48.526;9.044;2023-06-10T13:10:16;29.54;35.60
69084;SHT31;56185;48.526;9.044;2023-06-10T13:12:42;29.59;34.97
69084;SHT31;56185;48.526;9.044;2023-06-10T13:15:08;29.47;35.43
69084;SHT31;56185;48.526;9.044;2023-06-10T13:17:33;29.63;35.59
69084;SHT31;56185;48.526;9.044;2023-06-10T13:19:59;29.68;35.54
69084;SHT31;56185;48.526;9.044;2023-06-10T13:22:24;29.70;35.79
69084;SHT31;56185;48.526;9.044;2023-06-10T13:24:49;29.76;35.47
69084;SHT31;56185;48.526;9.044;2023-06-10T13:27:14;29.75;35.44
69084;SHT31;56185;48.526;9.044;2023-06-10T13:29:40;29.83;35.74
69084;SHT31;56185;48.526;9.044;2023-06-10T13:32:06;29.88;35.98
69084;SHT31;56185;48.526;9.044;2023-06-10T13:34:31;29.97;35.62
69084;SHT31;56185;48.526;9.044;2023-06-10T13:36:56;30.19;35.37
69084;SHT31;56185;48.526;9.044;2023-06-10T13:39:22;30.13;33.99
69084;SHT31;56185;48.526;9.044;2023-06-10T13:41:47;30.23;34.79
69084;SHT31;56185;48.526;9.044;2023-06-10T13:44:12;30.31;34.17
69084;SHT31;56185;48.526;9.044;2023-06-10T13:46:37;30.38;34.02
69084;SHT31;56185;48.526;9.044;2023-06-10T13:49:02;30.30;34.14
69084;SHT31;56185;48.526;9.044;2023-06-10T13:51:28;30.37;34.17
69084;SHT31;56185;48.526;9.044;2023-06-10T13:53:53;30.44;34.94
69084;SHT31;56185;48.526;9.044;2023-06-10T13:56:18;30.61;34.18
69084;SHT31;56185;48.526;9.044;2023-06-10T13:58:44;30.56;33.88
69084;SHT31;56185;48.526;9.044;2023-06-10T14:01:09;30.45;34.10
69084;SHT31;56185;48.526;9.044;2023-06-10T14:03:34;30.38;34.05
69084;SHT31;56185;48.526;9.044;2023-06-10T14:05:59;29.92;34.46
69084;SHT31;56185;48.526;9.044;2023-06-10T14:08:25;29.70;35.13
69084;SHT31;56185;48.526;9.044;2023-06-10T14:10:50;29.58;35.48
69084;SHT31;56185;48.526;9.044;2023-06-10T14:13:15;29.47;35.75
69084;SHT31;56185;48.526;9.044;2023-06-10T14:15:41;29.31;35.99
69084;SHT31;56185;48.526;9.044;2023-06-10T14:18:06;29.10;36.20
69084;SHT31;56185;48.526;9.044;2023-06-10T14:20:31;29.06;36.57
69084;SHT31;56185;48.526;9.044;2023-06-10T14:22:57;29.14;37.16
69084;SHT31;56185;48.526;9.044;2023-06-10T14:25:22;29.38;36.83
69084;SHT31;56185;48.526;9.044;2023-06-10T14:27:48;29.62;35.54
69084;SHT31;56185;48.526;9.044;2023-06-10T14:30:13;29.80;35.67
69084;SHT31;56185;48.526;9.044;2023-06-10T14:32:39;29.85;35.80
69084;SHT31;56185;48.526;9.044;2023-06-10T14:35:07;30.02;35.63
69084;SHT31;56185;48.526;9.044;2023-06-10T14:37:32;29.99;35.51
69084;SHT31;56185;48.526;9.044;2023-06-10T14:39:57;29.85;34.64
69084;SHT31;56185;48.526;9.044;2023-06-10T14:42:23;29.69;34.60
69084;SHT31;56185;48.526;9.044;2023-06-10T14:44:48;29.57;34.98
69084;SHT31;56185;48.526;9.044;2023-06-10T14:47:14;29.39;35.27
69084;SHT31;56185;48.526;9.044;2023-06-10T14:49:39;29.15;35.49
69084;SHT31;56185;48.526;9.044;2023-06-10T14:52:05;29.22;35.85
69084;SHT31;56185;48.526;9.044;2023-06-10T14:54:30;29.41;35.59
69084;SHT31;56185;48.526;9.044;2023-06-10T14:56:56;29.57;35.83
69084;SHT31;56185;48.526;9.044;2023-06-10T14:59:21;29.76;35.68
69084;SHT31;56185;48.526;9.044;2023-06-10T15:01:48;29.83;35.59
69084;SHT31;56185;48.526;9.044;2023-06-10T15:04:13;29.92;35.64
69084;SHT31;56185;48.526;9.044;2023-06-10T15:06:39;29.97;36.29
69084;SHT31;56185;48.526;9.044;2023-06-10T15:09:04;29.79;36.57
69084;SHT31;56185;48.526;9.044;2023-06-10T15:11:30;29.73;35.93
69084;SHT31;56185;48.526;9.044;2023-06-10T15:13:55;29.86;35.67
69084;SHT31;56185;48.526;9.044;2023-06-10T15:16:22;29.95;35.16
69084;SHT31;56185;48.526;9.044;2023-06-10T15:18:47;29.93;34.69
69084;SHT31;56185;48.526;9.044;2023-06-10T15:21:34;29.76;35.14
69084;SHT31;56185;48.526;9.044;2023-06-10T15:24:01;29.96;34.41
69084;SHT31;56185;48.526;9.044;2023-06-10T15:26:27;29.90;35.02
69084;SHT31;56185;48.526;9.044;2023-06-10T15:28:55;29.96;35.36
69084;SHT31;56185;48.526;9.044;2023-06-10T15:31:21;30.03;35.52
69084;SHT31;56185;48.526;9.044;2023-06-10T15:33:50;30.13;35.46
69084;SHT31;56185;48.526;9.044;2023-06-10T15:36:15;29.96;35.50
69084;SHT31;56185;48.526;9.044;2023-06-10T15:38:41;30.12;35.57